Time;durP1;ratioP1;P1;durP2;ratioP2;P2;SDS_P1;SDS_P2;PMS_P1;PMS_P2;Temp;Humidity;BMP_temperature;BMP_pressure;BME280_temperature;BME280_humidity;BME280_pressure;Samples;Min_cycle;Max_cycle;Signal;HPM_P1;HPM_P2
2022/02/18 00:01:43;;;;;;;;;;;7.70;75.40;;;;;;5063966;28;20180;-66
2022/02/18 00:04:09;;;;;;;;;;;7.60;75.80;;;;;;5063629;28;19940;-66
2022/02/18 00:06:35;;;;;;;;;;;7.70;77.20;;;;;;5064124;28;20180;-66
2022/02/18 00:09:00;;;;;;;;;;;7.70;76.90;;;;;;5063802;28;19915;-65
2022/02/18 00:11:26;;;;;;;;;;;7.70;76.50;;;;;;5063913;28;19912;-66
2022/02/18 00:13:52;;;;;;;;;;;7.80;76.20;;;;;;5046329;28;19992;-66
2022/02/18 00:16:17;;;;;;;;;;;7.80;75.90;;;;;;5064201;28;19919;-66
2022/02/18 00:18:43;;;;;;;;;;;7.80;76.20;;;;;;5064158;28;20254;-65
2022/02/18 00:21:08;;;;;;;;;;;7.70;76.50;;;;;;5063412;28;19975;-66
2022/02/18 00:23:34;;;;;;;;;;;7.70;77.40;;;;;;5064050;28;19909;-65
2022/02/18 00:26:00;;;;;;;;;;;7.50;77.90;;;;;;5064057;28;20196;-65
2022/02/18 00:28:26;;;;;;;;;;;7.50;78.80;;;;;;5063895;28;19908;-66
2022/02/18 00:30:51;;;;;;;;;;;7.50;79.80;;;;;;5063523;28;19919;-65
2022/02/18 00:33:19;;;;;;;;;;;7.40;81.40;;;;;;5063039;28;19913;-65
2022/02/18 00:35:44;;;;;;;;;;;7.40;83.40;;;;;;5063414;28;19916;-65
2022/02/18 00:38:10;;;;;;;;;;;7.50;85.50;;;;;;5063721;28;19909;-66
2022/02/18 00:40:36;;;;;;;;;;;7.40;86.70;;;;;;5063303;28;19913;-66
2022/02/18 00:43:01;;;;;;;;;;;7.40;87.30;;;;;;5063780;28;20279;-65
2022/02/18 00:45:28;;;;;;;;;;;7.40;89.50;;;;;;5063293;28;19944;-66
2022/02/18 00:47:54;;;;;;;;;;;7.50;90.10;;;;;;5063611;28;20125;-66
2022/02/18 00:50:20;;;;;;;;;;;7.60;90.20;;;;;;5063138;28;19912;-66
2022/02/18 00:52:46;;;;;;;;;;;7.60;90.30;;;;;;5062930;28;19912;-66
2022/02/18 00:55:12;;;;;;;;;;;7.60;90.40;;;;;;5063556;28;19994;-66
2022/02/18 00:57:38;;;;;;;;;;;7.70;90.40;;;;;;5063393;28;19909;-66
2022/02/18 01:00:05;;;;;;;;;;;7.80;90.40;;;;;;5063199;28;19920;-65
2022/02/18 01:02:30;;;;;;;;;;;7.80;90.50;;;;;;5062343;28;20107;-65
2022/02/18 01:04:56;;;;;;;;;;;7.80;90.60;;;;;;5063208;28;19909;-66
2022/02/18 01:07:23;;;;;;;;;;;7.80;90.80;;;;;;5064152;28;19970;-66
2022/02/18 01:09:49;;;;;;;;;;;7.80;90.90;;;;;;5063672;28;19946;-65
2022/02/18 01:12:15;;;;;;;;;;;7.80;90.20;;;;;;5063940;28;19983;-66
2022/02/18 01:14:40;;;;;;;;;;;7.90;90.20;;;;;;5064266;28;20084;-66
2022/02/18 01:17:06;;;;;;;;;;;7.90;90.00;;;;;;5064189;28;19947;-66
2022/02/18 01:19:32;;;;;;;;;;;8.00;90.10;;;;;;5064136;28;20026;-65
2022/02/18 01:21:57;;;;;;;;;;;8.00;90.00;;;;;;5063510;28;19908;-67
2022/02/18 01:24:23;;;;;;;;;;;8.00;90.10;;;;;;5042786;28;19955;-65
2022/02/18 01:26:49;;;;;;;;;;;7.90;90.50;;;;;;5063907;28;19908;-65
2022/02/18 01:29:14;;;;;;;;;;;7.90;90.30;;;;;;5059448;28;19924;-65
2022/02/18 01:31:40;;;;;;;;;;;7.90;90.50;;;;;;5063435;28;20134;-65
2022/02/18 01:34:06;;;;;;;;;;;7.90;90.40;;;;;;5063651;28;19909;-65
2022/02/18 01:36:31;;;;;;;;;;;8.00;90.60;;;;;;5063502;28;20127;-65
2022/02/18 01:38:57;;;;;;;;;;;8.00;90.40;;;;;;5063771;28;19916;-65
2022/02/18 01:41:23;;;;;;;;;;;8.00;90.40;;;;;;5063132;28;19981;-65
2022/02/18 01:43:54;;;;;;;;;;;8.00;90.50;;;;;;5063594;28;19991;-66
2022/02/18 01:46:20;;;;;;;;;;;8.00;90.60;;;;;;5063862;28;19931;-65
2022/02/18 01:48:46;;;;;;;;;;;7.90;90.70;;;;;;5063651;28;20114;-65
2022/02/18 01:51:11;;;;;;;;;;;7.90;90.70;;;;;;5062941;28;19944;-65
2022/02/18 01:53:37;;;;;;;;;;;7.90;90.60;;;;;;5056371;28;19909;-65
2022/02/18 01:56:03;;;;;;;;;;;8.00;90.40;;;;;;5063418;28;20139;-65
2022/02/18 01:58:30;;;;;;;;;;;8.00;90.70;;;;;;5063442;28;19908;-65
2022/02/18 02:00:57;;;;;;;;;;;8.00;90.40;;;;;;5062997;28;19935;-65
2022/02/18 02:03:23;;;;;;;;;;;8.00;90.40;;;;;;5062092;28;19917;-65
2022/02/18 02:05:51;;;;;;;;;;;8.00;90.30;;;;;;5062992;28;19970;-65
2022/02/18 02:08:17;;;;;;;;;;;8.00;90.20;;;;;;5045128;28;19909;-65
2022/02/18 02:10:43;;;;;;;;;;;8.00;90.40;;;;;;5062787;28;19909;-65
2022/02/18 02:13:09;;;;;;;;;;;8.10;90.00;;;;;;5063197;28;20203;-65
2022/02/18 02:15:35;;;;;;;;;;;8.10;89.80;;;;;;5063195;28;19908;-65
2022/02/18 02:18:01;;;;;;;;;;;8.10;89.70;;;;;;5063637;28;19978;-65
2022/02/18 02:20:27;;;;;;;;;;;8.10;89.70;;;;;;5062676;28;19913;-65
2022/02/18 02:22:52;;;;;;;;;;;8.10;89.60;;;;;;5055726;28;19962;-65
2022/02/18 02:25:18;;;;;;;;;;;8.20;89.20;;;;;;5061862;28;19913;-65
2022/02/18 02:27:44;;;;;;;;;;;8.20;89.10;;;;;;5061870;28;19909;-65
2022/02/18 02:30:10;;;;;;;;;;;8.20;88.80;;;;;;5062967;28;19947;-65
2022/02/18 02:32:36;;;;;;;;;;;8.20;88.70;;;;;;5062725;28;19908;-65
2022/02/18 02:35:02;;;;;;;;;;;8.20;88.90;;;;;;5062841;28;19946;-65
2022/02/18 02:37:28;;;;;;;;;;;8.10;88.90;;;;;;5062771;28;19931;-65
2022/02/18 02:39:53;;;;;;;;;;;8.10;89.10;;;;;;5062647;28;19959;-65
2022/02/18 02:42:19;;;;;;;;;;;8.10;89.00;;;;;;5062571;28;19972;-65
2022/02/18 02:44:45;;;;;;;;;;;8.10;88.90;;;;;;5062733;28;19951;-65
2022/02/18 02:47:10;;;;;;;;;;;8.20;88.40;;;;;;5062713;28;19909;-65
2022/02/18 02:49:36;;;;;;;;;;;8.10;88.90;;;;;;5062678;28;20116;-65
2022/02/18 02:52:02;;;;;;;;;;;8.10;88.90;;;;;;5061979;28;19951;-65
2022/02/18 02:54:28;;;;;;;;;;;8.10;89.00;;;;;;5062584;28;19909;-65
2022/02/18 02:56:55;;;;;;;;;;;8.00;89.10;;;;;;5062620;28;20139;-65
2022/02/18 02:59:20;;;;;;;;;;;8.10;89.10;;;;;;5045036;28;19909;-65
2022/02/18 03:01:46;;;;;;;;;;;8.00;89.10;;;;;;5062251;28;19962;-65
2022/02/18 03:04:12;;;;;;;;;;;8.00;89.50;;;;;;5061677;28;19909;-65
2022/02/18 03:06:37;;;;;;;;;;;8.00;89.40;;;;;;5062613;28;19908;-65
2022/02/18 03:09:08;;;;;;;;;;;8.00;89.50;;;;;;5062602;28;19915;-65
2022/02/18 03:11:34;;;;;;;;;;;8.00;89.50;;;;;;5062205;28;20011;-65
2022/02/18 03:14:00;;;;;;;;;;;7.90;89.60;;;;;;5062503;28;19912;-65
2022/02/18 03:16:25;;;;;;;;;;;7.90;89.80;;;;;;5065726;28;19971;-65
2022/02/18 03:18:51;;;;;;;;;;;7.90;89.70;;;;;;5048519;28;20211;-65
2022/02/18 03:21:17;;;;;;;;;;;7.90;89.60;;;;;;5066012;28;19919;-65
2022/02/18 03:23:46;;;;;;;;;;;7.80;89.70;;;;;;5066492;28;19909;-65
2022/02/18 03:26:21;;;;;;;;;;;7.80;90.00;;;;;;5066388;28;19955;-65
2022/02/18 03:28:46;;;;;;;;;;;7.80;89.90;;;;;;5066415;28;19948;-65
2022/02/18 03:31:12;;;;;;;;;;;7.70;90.10;;;;;;5065786;28;19908;-65
2022/02/18 03:33:38;;;;;;;;;;;7.80;90.10;;;;;;5066042;28;20103;-65
2022/02/18 03:36:04;;;;;;;;;;;7.70;90.10;;;;;;5066164;28;20267;-65
2022/02/18 03:38:30;;;;;;;;;;;7.70;90.10;;;;;;5066052;28;19976;-65
2022/02/18 03:40:56;;;;;;;;;;;7.70;90.10;;;;;;5065585;28;19935;-65
2022/02/18 03:43:21;;;;;;;;;;;7.70;90.10;;;;;;5066012;28;19915;-65
2022/02/18 03:45:47;;;;;;;;;;;7.70;90.10;;;;;;5065898;28;20231;-65
2022/02/18 03:48:13;;;;;;;;;;;7.70;90.20;;;;;;5065665;28;19913;-65
2022/02/18 03:50:40;;;;;;;;;;;7.70;90.20;;;;;;5065453;28;20254;-65
2022/02/18 03:53:05;;;;;;;;;;;7.70;90.10;;;;;;5065804;28;19909;-65
2022/02/18 03:55:31;;;;;;;;;;;7.70;90.10;;;;;;5065742;28;19909;-65
2022/02/18 03:57:57;;;;;;;;;;;7.70;90.30;;;;;;5065733;28;20338;-65
2022/02/18 04:00:23;;;;;;;;;;;7.60;90.30;;;;;;5065483;28;19913;-65
2022/02/18 04:02:48;;;;;;;;;;;7.70;90.30;;;;;;5064436;28;19921;-65
2022/02/18 04:05:14;;;;;;;;;;;7.60;90.30;;;;;;5065681;28;19940;-65
2022/02/18 04:07:40;;;;;;;;;;;7.70;90.30;;;;;;5065519;28;19916;-65
2022/02/18 04:10:06;;;;;;;;;;;7.60;90.30;;;;;;5065301;28;19908;-65
2022/02/18 04:12:31;;;;;;;;;;;7.60;90.40;;;;;;5065193;28;19909;-65
2022/02/18 04:14:57;;;;;;;;;;;7.70;90.40;;;;;;5065323;28;20157;-65
2022/02/18 04:17:24;;;;;;;;;;;7.60;90.50;;;;;;5065305;28;19909;-65
2022/02/18 04:19:49;;;;;;;;;;;7.60;90.50;;;;;;5064841;28;19916;-65
2022/02/18 04:22:15;;;;;;;;;;;7.60;90.70;;;;;;5064978;28;19936;-65
2022/02/18 04:24:41;;;;;;;;;;;7.60;90.70;;;;;;5065187;28;19916;-65
2022/02/18 04:27:06;;;;;;;;;;;7.60;90.80;;;;;;5064279;28;19916;-65
2022/02/18 04:29:32;;;;;;;;;;;7.50;90.90;;;;;;5065010;28;19915;-65
2022/02/18 04:31:58;;;;;;;;;;;7.50;91.20;;;;;;5064738;28;19916;-65
2022/02/18 04:34:23;;;;;;;;;;;7.40;91.20;;;;;;5064737;28;20219;-65
2022/02/18 04:36:49;;;;;;;;;;;7.30;91.40;;;;;;5064954;28;19944;-65
2022/02/18 04:39:15;;;;;;;;;;;7.30;91.40;;;;;;5064726;28;19915;-65
2022/02/18 04:41:42;;;;;;;;;;;7.30;91.50;;;;;;5064513;28;19955;-65
2022/02/18 04:44:08;;;;;;;;;;;7.20;91.60;;;;;;5064729;28;19916;-65
2022/02/18 04:46:33;;;;;;;;;;;7.20;91.70;;;;;;5064791;28;20253;-65
2022/02/18 04:48:59;;;;;;;;;;;7.20;91.70;;;;;;5064506;28;20108;-65
2022/02/18 04:51:25;;;;;;;;;;;7.10;91.80;;;;;;5075588;22;19928;-71
2022/02/18 04:53:51;;;;;;;;;;;7.10;91.90;;;;;;5046731;28;19909;-71
2022/02/18 04:56:16;;;;;;;;;;;7.00;92.10;;;;;;5064614;28;19909;-71
2022/02/18 04:58:42;;;;;;;;;;;7.00;92.30;;;;;;5064578;28;19917;-71
2022/02/18 05:01:09;;;;;;;;;;;6.90;92.40;;;;;;5046455;28;20266;-71
2022/02/18 05:03:35;;;;;;;;;;;6.90;92.50;;;;;;5046963;28;19916;-71
2022/02/18 05:06:04;;;;;;;;;;;6.90;92.60;;;;;;5063069;28;19908;-71
2022/02/18 05:08:30;;;;;;;;;;;6.80;92.60;;;;;;5030283;28;19915;-71
2022/02/18 05:10:55;;;;;;;;;;;6.80;92.70;;;;;;5046263;28;19908;-71
2022/02/18 05:13:21;;;;;;;;;;;6.80;93.10;;;;;;5061211;28;19921;-72
2022/02/18 05:15:47;;;;;;;;;;;6.80;92.80;;;;;;5037883;28;19935;-72
2022/02/18 05:18:13;;;;;;;;;;;6.70;92.90;;;;;;5040346;28;20119;-72
2022/02/18 05:20:39;;;;;;;;;;;6.70;93.00;;;;;;5043684;28;20148;-72
2022/02/18 05:23:04;;;;;;;;;;;6.70;93.00;;;;;;5044190;28;19947;-72
2022/02/18 05:25:31;;;;;;;;;;;6.70;92.90;;;;;;5044196;28;19909;-71
2022/02/18 05:28:04;;;;;;;;;;;6.70;93.00;;;;;;5026844;28;19916;-72
2022/02/18 05:30:31;;;;;;;;;;;6.80;92.90;;;;;;5043839;28;19909;-72
2022/02/18 05:32:56;;;;;;;;;;;6.80;92.80;;;;;;5037198;28;19909;-72
2022/02/18 05:35:22;;;;;;;;;;;6.70;92.80;;;;;;5042654;28;19909;-72
2022/02/18 05:37:48;;;;;;;;;;;6.70;92.90;;;;;;5042870;28;19947;-72
2022/02/18 05:40:14;;;;;;;;;;;6.70;92.90;;;;;;5042621;28;20440;-72
2022/02/18 05:42:40;;;;;;;;;;;6.80;92.90;;;;;;5026898;28;19984;-72
2022/02/18 05:45:07;;;;;;;;;;;6.70;93.00;;;;;;5042495;28;19909;-72
2022/02/18 05:47:35;;;;;;;;;;;6.70;93.00;;;;;;5041524;28;19916;-71
2022/02/18 05:50:10;;;;;;;;;;;6.70;93.00;;;;;;5042661;28;19936;-72
2022/02/18 05:52:36;;;;;;;;;;;6.60;93.10;;;;;;5007652;28;20148;-72
2022/02/18 05:55:05;;;;;;;;;;;6.60;93.10;;;;;;5038777;28;19917;-72
2022/02/18 05:57:31;;;;;;;;;;;6.60;93.10;;;;;;5043331;28;19917;-71
2022/02/18 05:59:57;;;;;;;;;;;6.50;93.30;;;;;;5042391;28;20139;-72
2022/02/18 06:02:22;;;;;;;;;;;6.40;93.40;;;;;;5043075;28;19909;-72
2022/02/18 06:04:48;;;;;;;;;;;6.40;93.50;;;;;;5042837;28;20231;-72
2022/02/18 06:07:17;;;;;;;;;;;6.40;93.60;;;;;;5038384;28;19909;-72
2022/02/18 06:09:43;;;;;;;;;;;6.40;93.60;;;;;;5007659;28;19920;-71
2022/02/18 06:12:09;;;;;;;;;;;6.40;93.60;;;;;;5022313;28;19909;-71
2022/02/18 06:14:35;;;;;;;;;;;6.40;93.70;;;;;;5033709;28;19959;-72
2022/02/18 06:17:05;;;;;;;;;;;6.30;93.80;;;;;;5023584;28;19917;-77
2022/02/18 06:19:34;;;;;;;;;;;6.40;93.90;;;;;;4994386;28;19925;-77
2022/02/18 06:22:00;;;;;;;;;;;6.30;93.80;;;;;;5015160;28;19922;-75
2022/02/18 06:24:25;;;;;;;;;;;6.30;93.80;;;;;;5038541;28;19916;-76
2022/02/18 06:26:51;;;;;;;;;;;6.30;93.90;;;;;;5041755;28;19956;-75
2022/02/18 06:29:17;;;;;;;;;;;6.40;93.90;;;;;;5025542;28;19909;-76
2022/02/18 06:31:42;;;;;;;;;;;6.30;93.90;;;;;;5041655;28;19952;-75
2022/02/18 06:34:08;;;;;;;;;;;6.40;93.90;;;;;;5042757;28;19909;-75
2022/02/18 06:36:34;;;;;;;;;;;6.40;93.90;;;;;;5025084;28;19972;-76
2022/02/18 06:38:59;;;;;;;;;;;6.40;93.80;;;;;;5025478;28;19910;-75
2022/02/18 06:41:25;;;;;;;;;;;6.50;93.80;;;;;;5042675;28;20116;-75
2022/02/18 06:43:51;;;;;;;;;;;6.50;93.60;;;;;;5025329;28;19936;-75
2022/02/18 06:46:16;;;;;;;;;;;6.60;93.60;;;;;;5042832;28;20183;-75
2022/02/18 06:48:42;;;;;;;;;;;6.60;93.40;;;;;;5025438;28;19909;-76
2022/02/18 06:51:08;;;;;;;;;;;6.70;93.40;;;;;;5047507;28;19944;-75
2022/02/18 06:53:34;;;;;;;;;;;6.70;93.30;;;;;;5031949;28;19913;-75
2022/02/18 06:56:00;;;;;;;;;;;6.70;93.30;;;;;;5031242;28;19909;-75
2022/02/18 06:58:26;;;;;;;;;;;6.70;93.20;;;;;;5049487;28;19913;-75
2022/02/18 07:00:52;;;;;;;;;;;6.80;92.90;;;;;;5030617;28;19948;-75
2022/02/18 07:03:19;;;;;;;;;;;6.90;92.90;;;;;;5031775;28;19940;-75
2022/02/18 07:05:45;;;;;;;;;;;6.90;92.80;;;;;;5014265;28;19976;-75
2022/02/18 07:08:11;;;;;;;;;;;6.90;92.80;;;;;;5031591;28;19909;-75
2022/02/18 07:10:37;;;;;;;;;;;6.90;92.70;;;;;;5031463;28;20007;-75
2022/02/18 07:13:02;;;;;;;;;;;6.90;92.70;;;;;;5031662;28;20200;-75
2022/02/18 07:15:28;;;;;;;;;;;6.90;92.60;;;;;;5015148;28;19916;-75
2022/02/18 07:17:55;;;;;;;;;;;6.90;92.60;;;;;;5031712;28;19931;-75
2022/02/18 07:20:21;;;;;;;;;;;6.80;92.70;;;;;;5015313;28;19936;-75
2022/02/18 07:22:47;;;;;;;;;;;6.90;92.70;;;;;;5014820;28;19912;-75
2022/02/18 07:25:16;;;;;;;;;;;6.90;92.60;;;;;;4998918;28;20074;-75
2022/02/18 07:27:42;;;;;;;;;;;6.90;92.60;;;;;;5015243;28;19909;-75
2022/02/18 07:30:08;;;;;;;;;;;6.90;92.60;;;;;;5031488;28;19996;-75
2022/02/18 07:32:34;;;;;;;;;;;6.90;92.70;;;;;;5014585;28;19931;-75
2022/02/18 07:35:00;;;;;;;;;;;6.90;92.60;;;;;;5031422;28;19909;-76
2022/02/18 07:37:25;;;;;;;;;;;6.90;92.50;;;;;;5031238;28;19976;-75
2022/02/18 07:39:51;;;;;;;;;;;7.00;92.40;;;;;;5031347;28;19944;-76
2022/02/18 07:42:17;;;;;;;;;;;7.00;92.40;;;;;;5031164;28;19915;-75
2022/02/18 07:44:43;;;;;;;;;;;7.00;92.20;;;;;;5031501;28;19909;-76
2022/02/18 07:47:09;;;;;;;;;;;7.00;92.10;;;;;;5048935;28;19909;-75
2022/02/18 07:49:34;;;;;;;;;;;7.10;92.10;;;;;;5031079;28;19972;-75
2022/02/18 07:52:00;;;;;;;;;;;7.10;92.10;;;;;;5048287;28;20147;-75
2022/02/18 07:54:26;;;;;;;;;;;7.20;92.00;;;;;;5014854;28;20334;-75
2022/02/18 07:56:52;;;;;;;;;;;7.20;92.00;;;;;;5031281;28;19909;-76
2022/02/18 07:59:17;;;;;;;;;;;7.30;92.00;;;;;;5031123;28;19909;-75
2022/02/18 08:01:43;;;;;;;;;;;7.30;91.90;;;;;;5045723;28;19917;-76
2022/02/18 08:04:09;;;;;;;;;;;7.30;92.00;;;;;;5027364;28;20162;-75
2022/02/18 08:06:34;;;;;;;;;;;7.30;92.20;;;;;;5045435;28;19976;-76
2022/02/18 08:09:01;;;;;;;;;;;7.30;91.90;;;;;;5028013;28;19910;-76
2022/02/18 08:11:26;;;;;;;;;;;7.30;92.00;;;;;;5027751;28;19909;-76
2022/02/18 08:13:53;;;;;;;;;;;7.30;92.00;;;;;;5027987;28;19909;-76
2022/02/18 08:16:19;;;;;;;;;;;7.40;91.90;;;;;;5045455;28;19988;-76
2022/02/18 08:18:45;;;;;;;;;;;7.40;91.90;;;;;;5011592;28;20140;-76
2022/02/18 08:21:11;;;;;;;;;;;7.40;91.90;;;;;;5027189;28;19989;-76
2022/02/18 08:23:37;;;;;;;;;;;7.50;92.00;;;;;;5011512;28;19913;-76
2022/02/18 08:26:03;;;;;;;;;;;7.50;92.00;;;;;;5027750;28;20214;-75
2022/02/18 08:28:28;;;;;;;;;;;7.40;92.20;;;;;;5011492;28;19909;-76
2022/02/18 08:30:54;;;;;;;;;;;7.50;92.90;;;;;;5027331;28;19909;-76
2022/02/18 08:33:20;;;;;;;;;;;7.50;92.40;;;;;;5011262;28;19916;-76
2022/02/18 08:35:46;;;;;;;;;;;7.50;92.50;;;;;;5011343;28;19909;-76
2022/02/18 08:38:12;;;;;;;;;;;7.60;92.50;;;;;;5027724;28;19931;-76
2022/02/18 08:40:37;;;;;;;;;;;7.60;92.30;;;;;;5010864;28;19949;-75
2022/02/18 08:43:03;;;;;;;;;;;7.60;92.30;;;;;;5027599;28;19909;-76
2022/02/18 08:45:29;;;;;;;;;;;7.60;92.60;;;;;;5027453;28;19909;-76
2022/02/18 08:47:55;;;;;;;;;;;7.60;92.70;;;;;;5044860;28;19913;-76
2022/02/18 08:50:21;;;;;;;;;;;7.70;92.30;;;;;;5010935;28;20111;-76
2022/02/18 08:52:47;;;;;;;;;;;7.70;92.50;;;;;;5010594;28;19909;-76
2022/02/18 08:55:14;;;;;;;;;;;7.80;92.10;;;;;;5027283;28;19916;-75
2022/02/18 08:57:40;;;;;;;;;;;7.80;92.20;;;;;;5027375;28;19987;-76
2022/02/18 09:00:07;;;;;;;;;;;7.80;91.90;;;;;;5026876;28;19988;-75
2022/02/18 09:02:36;;;;;;;;;;;7.80;91.80;;;;;;5026726;28;19944;-76
2022/02/18 09:05:03;;;;;;;;;;;7.90;91.70;;;;;;5027240;28;20156;-76
2022/02/18 09:07:29;;;;;;;;;;;8.00;91.40;;;;;;5027105;28;19909;-75
2022/02/18 09:09:56;;;;;;;;;;;8.00;91.40;;;;;;5027027;28;19909;-75
2022/02/18 09:12:22;;;;;;;;;;;8.00;91.20;;;;;;5026340;28;19909;-76
2022/02/18 09:14:48;;;;;;;;;;;8.10;91.20;;;;;;5026747;28;20143;-76
2022/02/18 09:17:14;;;;;;;;;;;8.10;90.90;;;;;;5044679;28;19932;-77
2022/02/18 09:19:40;;;;;;;;;;;8.20;90.90;;;;;;5044337;28;19972;-76
2022/02/18 09:22:05;;;;;;;;;;;8.20;90.80;;;;;;5026310;28;19956;-76
2022/02/18 09:24:32;;;;;;;;;;;8.30;90.70;;;;;;5044429;28;19908;-76
2022/02/18 09:26:58;;;;;;;;;;;8.30;90.40;;;;;;5044516;28;19909;-76
2022/02/18 09:29:26;;;;;;;;;;;8.40;90.20;;;;;;5042792;28;19941;-77
2022/02/18 09:31:51;;;;;;;;;;;8.40;90.10;;;;;;5043649;28;20148;-77
2022/02/18 09:34:17;;;;;;;;;;;8.40;90.00;;;;;;5040557;28;19909;-77
2022/02/18 09:36:43;;;;;;;;;;;8.40;90.00;;;;;;5006569;28;19952;-77
2022/02/18 09:39:09;;;;;;;;;;;8.50;89.80;;;;;;5006840;28;20193;-77
2022/02/18 09:41:35;;;;;;;;;;;8.60;89.70;;;;;;5023877;28;19955;-77
2022/02/18 09:44:01;;;;;;;;;;;8.50;89.60;;;;;;5006696;28;19916;-76
2022/02/18 09:46:27;;;;;;;;;;;8.60;89.30;;;;;;5006771;28;19972;-77
2022/02/18 09:48:54;;;;;;;;;;;8.70;89.30;;;;;;5024183;28;19955;-77
2022/02/18 09:51:20;;;;;;;;;;;8.70;89.50;;;;;;5023446;28;20143;-76
2022/02/18 09:53:46;;;;;;;;;;;8.70;88.80;;;;;;5006595;28;19952;-77
2022/02/18 09:56:12;;;;;;;;;;;8.80;88.80;;;;;;5006619;28;19909;-77
2022/02/18 09:58:38;;;;;;;;;;;8.90;88.70;;;;;;5006506;28;19968;-77
2022/02/18 10:01:04;;;;;;;;;;;8.90;88.50;;;;;;5006137;28;19913;-76
2022/02/18 10:03:30;;;;;;;;;;;8.90;88.50;;;;;;5023993;28;19916;-76
2022/02/18 10:05:56;;;;;;;;;;;8.90;89.00;;;;;;5039995;28;19908;-77
2022/02/18 10:08:22;;;;;;;;;;;8.90;89.40;;;;;;5043344;28;19988;-77
2022/02/18 10:11:00;;;;;;;;;;;8.90;89.50;;;;;;5043280;28;19920;-75
2022/02/18 10:13:39;;;;;;;;;;;9.00;90.10;;;;;;5010209;28;19982;-75
2022/02/18 10:16:08;;;;;;;;;;;9.00;90.20;;;;;;5026019;28;19932;-75
2022/02/18 10:18:59;;;;;;;;;;;9.00;90.30;;;;;;5025895;28;20251;-75
2022/02/18 10:21:33;;;;;;;;;;;9.10;90.10;;;;;;5027091;28;19992;-75
2022/02/18 10:24:15;;;;;;;;;;;9.20;90.20;;;;;;5025818;28;19909;-76
2022/02/18 10:26:48;;;;;;;;;;;9.20;90.40;;;;;;5043149;28;19909;-75
2022/02/18 10:29:21;;;;;;;;;;;9.20;90.20;;;;;;5043114;28;19916;-75
2022/02/18 10:32:26;;;;;;;;;;;9.30;90.10;;;;;;5043124;28;20134;-76
2022/02/18 10:34:54;;;;;;;;;;;9.40;90.00;;;;;;4962976;29;19911;-75
2022/02/18 10:37:25;;;;;;;;;;;9.40;89.80;;;;;;4946869;29;19910;-76
2022/02/18 10:39:53;;;;;;;;;;;9.50;90.00;;;;;;4987667;28;20204;-76
2022/02/18 10:42:19;;;;;;;;;;;9.50;89.80;;;;;;5025192;28;19909;-76
2022/02/18 10:44:45;;;;;;;;;;;9.60;89.20;;;;;;5009191;28;19916;-76
2022/02/18 10:47:21;;;;;;;;;;;9.70;89.10;;;;;;5043361;28;20208;-76
2022/02/18 10:49:47;;;;;;;;;;;9.70;89.10;;;;;;5025603;28;19909;-76
2022/02/18 10:52:18;;;;;;;;;;;9.70;89.20;;;;;;5076536;23;20091;-66
2022/02/18 10:54:50;;;;;;;;;;;9.80;89.00;;;;;;5094605;28;20124;-66
2022/02/18 10:57:26;;;;;;;;;;;9.80;89.20;;;;;;5101843;28;19943;-67
2022/02/18 10:59:53;;;;;;;;;;;9.90;89.00;;;;;;5101768;28;19912;-67
2022/02/18 11:02:41;;;;;;;;;;;10.00;88.80;;;;;;5084869;28;20207;-66
2022/02/18 11:05:26;;;;;;;;;;;10.10;89.10;;;;;;5083296;28;19913;-66
2022/02/18 11:07:52;;;;;;;;;;;10.10;89.40;;;;;;5062317;28;20067;-66
2022/02/18 11:10:50;;;;;;;;;;;10.20;89.40;;;;;;5062633;28;19908;-67
2022/02/18 11:13:16;;;;;;;;;;;10.30;89.70;;;;;;5029277;28;19915;-67
2022/02/18 11:15:42;;;;;;;;;;;10.40;89.00;;;;;;5044951;28;20200;-66
2022/02/18 11:18:07;;;;;;;;;;;10.50;88.40;;;;;;5044496;28;19980;-66
2022/02/18 11:20:33;;;;;;;;;;;10.50;88.50;;;;;;5044267;28;19929;-65
2022/02/18 11:22:59;;;;;;;;;;;10.50;88.80;;;;;;5044273;28;20089;-67
2022/02/18 11:25:24;;;;;;;;;;;10.60;89.20;;;;;;5062556;28;19947;-67
2022/02/18 11:27:53;;;;;;;;;;;10.70;88.80;;;;;;5064891;28;19970;-67
2022/02/18 11:30:20;;;;;;;;;;;10.80;88.10;;;;;;5064779;28;20212;-65
2022/02/18 11:33:19;;;;;;;;;;;10.80;88.10;;;;;;5062066;28;19916;-67
2022/02/18 11:35:55;;;;;;;;;;;10.90;88.80;;;;;;5062618;28;19963;-65
2022/02/18 11:38:45;;;;;;;;;;;11.10;88.60;;;;;;5048249;28;19936;-67
2022/02/18 11:41:29;;;;;;;;;;;11.20;87.90;;;;;;5047625;28;19913;-67
2022/02/18 11:43:55;;;;;;;;;;;11.20;87.80;;;;;;5065837;28;19932;-66
2022/02/18 11:46:25;;;;;;;;;;;11.10;88.20;;;;;;5031592;28;20239;-66
2022/02/18 11:48:51;;;;;;;;;;;11.20;88.00;;;;;;5065575;28;19996;-66
2022/02/18 11:51:22;;;;;;;;;;;11.30;87.90;;;;;;5047675;28;19919;-66
2022/02/18 11:53:52;;;;;;;;;;;11.30;88.20;;;;;;5066149;28;19966;-66
2022/02/18 11:56:36;;;;;;;;;;;11.30;87.90;;;;;;5065911;28;20187;-66
2022/02/18 11:59:05;;;;;;;;;;;11.30;88.20;;;;;;5065792;28;19913;-67
2022/02/18 12:01:59;;;;;;;;;;;11.40;87.90;;;;;;5065314;28;20204;-66
2022/02/18 12:04:25;;;;;;;;;;;11.40;88.10;;;;;;5064987;28;19996;-67
2022/02/18 12:07:25;;;;;;;;;;;11.50;88.20;;;;;;5065169;28;19979;-66
2022/02/18 12:09:51;;;;;;;;;;;11.60;87.40;;;;;;5064793;28;19954;-66
2022/02/18 12:12:23;;;;;;;;;;;11.80;86.60;;;;;;5065055;28;19913;-65
2022/02/18 12:14:50;;;;;;;;;;;11.90;86.10;;;;;;5065226;28;20259;-67
2022/02/18 12:17:16;;;;;;;;;;;12.10;85.60;;;;;;5065345;28;20127;-66
2022/02/18 12:19:41;;;;;;;;;;;12.00;85.70;;;;;;5065152;28;19916;-67
2022/02/18 12:22:07;;;;;;;;;;;12.10;85.80;;;;;;5064572;28;19979;-67
2022/02/18 12:24:33;;;;;;;;;;;12.10;85.60;;;;;;5065110;28;19908;-66
2022/02/18 12:27:23;;;;;;;;;;;12.30;85.60;;;;;;5065067;28;19909;-66
2022/02/18 12:29:53;;;;;;;;;;;12.80;83.70;;;;;;5064989;28;19955;-66
2022/02/18 12:32:18;;;;;;;;;;;13.70;80.20;;;;;;5047459;28;20200;-66
2022/02/18 12:34:44;;;;;;;;;;;14.00;78.00;;;;;;5064742;28;19909;-67
2022/02/18 12:37:12;;;;;;;;;;;14.00;78.20;;;;;;5064568;28;20149;-66
2022/02/18 12:39:44;;;;;;;;;;;14.30;76.80;;;;;;5064742;28;20107;-66
2022/02/18 12:42:19;;;;;;;;;;;14.40;75.60;;;;;;5064577;28;19916;-67
2022/02/18 12:44:56;;;;;;;;;;;14.80;74.40;;;;;;5064745;28;19962;-67
2022/02/18 12:47:23;;;;;;;;;;;15.20;72.50;;;;;;5064029;28;19931;-67
2022/02/18 12:49:49;;;;;;;;;;;15.30;72.50;;;;;;5064717;28;20108;-67
2022/02/18 12:52:16;;;;;;;;;;;15.20;72.70;;;;;;5064026;28;19912;-67
2022/02/18 12:54:52;;;;;;;;;;;14.60;73.90;;;;;;5064690;28;19976;-66
2022/02/18 12:57:18;;;;;;;;;;;14.40;76.00;;;;;;5064647;28;19909;-67
2022/02/18 12:59:45;;;;;;;;;;;13.90;77.30;;;;;;5066730;28;19913;-66
2022/02/18 13:02:11;;;;;;;;;;;13.60;79.20;;;;;;5069241;28;20200;-66
2022/02/18 13:04:38;;;;;;;;;;;13.50;79.60;;;;;;5064372;28;19908;-66
2022/02/18 13:07:09;;;;;;;;;;;13.20;81.20;;;;;;5064096;28;19916;-66
2022/02/18 13:09:35;;;;;;;;;;;13.20;81.90;;;;;;5063897;28;19915;-66
2022/02/18 13:12:01;;;;;;;;;;;13.20;81.50;;;;;;5045825;28;19909;-66
2022/02/18 13:14:27;;;;;;;;;;;13.10;81.70;;;;;;5064011;28;19915;-67
2022/02/18 13:16:53;;;;;;;;;;;12.90;82.40;;;;;;5064159;28;19937;-66
2022/02/18 13:19:20;;;;;;;;;;;13.00;82.40;;;;;;5046182;28;19908;-66
2022/02/18 13:21:46;;;;;;;;;;;13.00;82.50;;;;;;5063127;28;20329;-67
2022/02/18 13:24:12;;;;;;;;;;;12.90;82.70;;;;;;5063793;28;19936;-66
2022/02/18 13:26:37;;;;;;;;;;;12.90;83.10;;;;;;5063677;28;19908;-66
2022/02/18 13:29:03;;;;;;;;;;;12.90;83.90;;;;;;5063928;28;19971;-66
2022/02/18 13:31:29;;;;;;;;;;;12.80;83.90;;;;;;5063330;28;19915;-67
2022/02/18 13:33:54;;;;;;;;;;;12.80;84.10;;;;;;5029609;28;19908;-66
2022/02/18 13:36:25;;;;;;;;;;;12.80;84.10;;;;;;5061104;28;19937;-66
2022/02/18 13:38:58;;;;;;;;;;;12.80;84.20;;;;;;5063506;28;19908;-67
2022/02/18 13:41:27;;;;;;;;;;;12.80;84.20;;;;;;5063424;28;19920;-66
2022/02/18 13:43:54;;;;;;;;;;;12.80;84.30;;;;;;5063723;28;19940;-67
2022/02/18 13:46:27;;;;;;;;;;;12.80;84.90;;;;;;5063650;28;19936;-66
2022/02/18 13:48:53;;;;;;;;;;;12.80;85.20;;;;;;5063625;28;20216;-66
2022/02/18 13:51:22;;;;;;;;;;;12.90;84.80;;;;;;5063084;28;19919;-67
2022/02/18 13:53:48;;;;;;;;;;;12.90;85.50;;;;;;5062159;28;19920;-66
2022/02/18 13:56:40;;;;;;;;;;;12.90;85.50;;;;;;5062280;28;19909;-66
2022/02/18 13:59:21;;;;;;;;;;;12.90;86.00;;;;;;5059212;28;19976;-67
2022/02/18 14:01:49;;;;;;;;;;;12.80;86.50;;;;;;5062825;28;20035;-67
2022/02/18 14:04:24;;;;;;;;;;;12.90;87.00;;;;;;5063262;28;19924;-67
2022/02/18 14:07:00;;;;;;;;;;;12.90;87.10;;;;;;5063189;28;20119;-66
2022/02/18 14:09:45;;;;;;;;;;;12.90;86.90;;;;;;5063013;28;20217;-67
2022/02/18 14:12:15;;;;;;;;;;;12.90;86.90;;;;;;5047838;28;19917;-67
2022/02/18 14:14:41;;;;;;;;;;;12.90;87.00;;;;;;5045801;28;20093;-67
2022/02/18 14:17:07;;;;;;;;;;;12.90;87.20;;;;;;5045336;28;19947;-67
2022/02/18 14:19:49;;;;;;;;;;;13.00;87.10;;;;;;5063066;28;19909;-67
2022/02/18 14:22:25;;;;;;;;;;;13.00;87.30;;;;;;5044721;28;19916;-66
2022/02/18 14:24:51;;;;;;;;;;;13.00;87.10;;;;;;5063054;28;19909;-66
2022/02/18 14:27:19;;;;;;;;;;;13.00;87.30;;;;;;5045342;28;19915;-66
2022/02/18 14:29:52;;;;;;;;;;;12.90;87.90;;;;;;5062891;28;19912;-67